Time;durP1;ratioP1;P1;durP2;ratioP2;P2;SDS_P1;SDS_P2;PMS_P1;PMS_P2;Temp;Humidity;BMP_temperature;BMP_pressure;BME280_temperature;BME280_humidity;BME280_pressure;Samples;Min_cycle;Max_cycle;Signal;HPM_P1;HPM_P2
2021/07/06 00:02:15;;;;;;;2.63;1.80;;;;;;;20.02;69.56;95310.94;4940044;29;20214;-86
2021/07/06 00:04:41;;;;;;;3.03;2.00;;;;;;;20.04;69.48;95313.31;4940620;29;20589;-83
2021/07/06 00:07:09;;;;;;;2.08;1.80;;;;;;;20.07;69.01;95311.00;4940082;29;20206;-85
2021/07/06 00:09:36;;;;;;;2.22;1.70;;;;;;;20.07;69.17;95305.78;4939285;29;20281;-84
2021/07/06 00:12:03;;;;;;;1.80;1.70;;;;;;;19.95;69.71;95302.50;4940550;29;20204;-84
2021/07/06 00:14:30;;;;;;;1.70;1.60;;;;;;;19.97;69.43;95303.06;4940607;29;20202;-84
2021/07/06 00:16:56;;;;;;;1.67;1.58;;;;;;;19.95;69.56;95302.50;4940751;29;20208;-83
2021/07/06 00:19:23;;;;;;;1.58;1.48;;;;;;;19.94;70.10;95308.75;4939262;29;20225;-86
2021/07/06 00:21:49;;;;;;;2.00;1.80;;;;;;;19.93;70.51;95299.34;4938058;29;20209;-83
2021/07/06 00:24:17;;;;;;;3.58;1.85;;;;;;;19.87;70.72;95302.91;4940260;29;20218;-83
2021/07/06 00:26:43;;;;;;;1.95;1.50;;;;;;;19.88;70.71;95297.44;4940492;29;20201;-83
2021/07/06 00:29:10;;;;;;;2.03;1.60;;;;;;;19.80;71.39;95305.72;4940192;29;20225;-83
2021/07/06 00:31:36;;;;;;;2.05;1.70;;;;;;;19.79;71.21;95303.34;4939300;29;20201;-84
2021/07/06 00:34:03;;;;;;;2.03;1.73;;;;;;;19.75;70.81;95304.84;4939991;29;20237;-85
2021/07/06 00:36:30;;;;;;;3.08;1.42;;;;;;;19.71;71.09;95309.75;4940349;29;20205;-86
2021/07/06 00:38:56;;;;;;;1.70;1.60;;;;;;;19.62;72.12;95306.75;4940315;29;20597;-85
2021/07/06 00:41:24;;;;;;;1.70;1.60;;;;;;;19.65;71.87;95311.50;4939481;29;20205;-85
2021/07/06 00:43:50;;;;;;;1.65;1.55;;;;;;;19.62;71.92;95309.38;4940519;29;20230;-84
2021/07/06 00:46:17;;;;;;;1.40;1.30;;;;;;;19.64;72.10;95314.34;4940579;29;20202;-83
2021/07/06 00:48:43;;;;;;;1.95;1.83;;;;;;;19.57;71.90;95303.28;4941107;29;20226;-86
2021/07/06 00:51:10;;;;;;;1.80;1.58;;;;;;;19.54;72.15;95301.94;4940328;29;20210;-85
2021/07/06 00:53:36;;;;;;;1.98;1.58;;;;;;;19.54;72.05;95298.53;4939581;29;20209;-84
2021/07/06 00:56:03;;;;;;;1.98;1.70;;;;;;;19.49;71.65;95301.81;4939270;28;20241;-84
2021/07/06 00:58:31;;;;;;;3.33;1.70;;;;;;;19.51;71.44;95297.19;4940223;29;20226;-85
2021/07/06 01:00:58;;;;;;;1.83;1.70;;;;;;;19.52;71.38;95298.75;4939360;29;20198;-85
2021/07/06 01:03:24;;;;;;;2.05;1.50;;;;;;;19.51;71.16;95294.56;4940255;29;20236;-83
2021/07/06 01:05:51;;;;;;;2.90;1.40;;;;;;;19.57;71.16;95293.63;4939970;29;20209;-83
2021/07/06 01:08:18;;;;;;;4.15;1.60;;;;;;;19.61;70.96;95294.72;4938953;29;20202;-86
2021/07/06 01:10:44;;;;;;;1.50;1.40;;;;;;;19.55;71.19;95290.47;4939855;29;20211;-83
2021/07/06 01:13:12;;;;;;;1.73;1.60;;;;;;;19.47;71.25;95280.38;4939091;29;20212;-83
2021/07/06 01:15:40;;;;;;;2.03;1.77;;;;;;;19.51;71.17;95281.50;4939630;29;20216;-84
2021/07/06 01:18:09;;;;;;;1.73;1.63;;;;;;;19.52;71.22;95277.88;4939259;29;20205;-85
2021/07/06 01:20:38;;;;;;;2.28;1.73;;;;;;;19.50;71.04;95276.53;4940350;29;20205;-84
2021/07/06 01:23:07;;;;;;;1.90;1.80;;;;;;;19.46;71.29;95265.72;4937235;29;20226;-83
2021/07/06 01:25:33;;;;;;;1.77;1.67;;;;;;;19.48;71.04;95263.69;4938126;29;20205;-83
2021/07/06 01:28:02;;;;;;;1.88;1.70;;;;;;;19.47;71.14;95271.75;4937361;29;20204;-84
2021/07/06 01:30:28;;;;;;;2.00;1.80;;;;;;;19.51;70.89;95271.06;4939460;29;20209;-83
2021/07/06 01:32:55;;;;;;;2.95;1.52;;;;;;;19.51;70.91;95262.44;4938897;29;20201;-86
2021/07/06 01:35:22;;;;;;;2.25;1.52;;;;;;;19.51;70.85;95258.00;4939092;29;20216;-84
2021/07/06 01:37:50;;;;;;;2.75;1.70;;;;;;;19.51;70.80;95265.84;4939277;29;20198;-85
2021/07/06 01:40:21;;;;;;;2.28;1.40;;;;;;;19.45;71.25;95248.50;4939114;29;20222;-85
2021/07/06 01:42:47;;;;;;;3.08;2.05;;;;;;;19.46;71.27;95257.13;4940300;29;20197;-84
2021/07/06 01:45:16;;;;;;;3.58;1.50;;;;;;;19.37;71.49;95251.53;4940980;29;20198;-83
2021/07/06 01:47:45;;;;;;;1.55;1.40;;;;;;;19.37;71.39;95242.91;4940716;29;20208;-85
2021/07/06 01:50:13;;;;;;;1.50;1.35;;;;;;;19.39;71.52;95246.06;4940696;29;20217;-85
2021/07/06 01:52:43;;;;;;;1.65;1.20;;;;;;;19.42;71.36;95237.75;4940895;29;20225;-84
2021/07/06 01:55:11;;;;;;;1.48;1.38;;;;;;;19.37;72.00;95243.69;4945230;29;20265;-83
2021/07/06 01:57:40;;;;;;;2.30;1.23;;;;;;;19.35;71.76;95237.13;4944288;28;20229;-84
2021/07/06 02:00:08;;;;;;;1.17;1.10;;;;;;;19.37;71.53;95232.44;4944553;29;20228;-84
2021/07/06 02:02:35;;;;;;;2.50;1.30;;;;;;;19.41;71.48;95230.94;4943258;29;20213;-83
2021/07/06 02:05:09;;;;;;;1.65;1.23;;;;;;;19.44;71.26;95227.84;4944627;29;20225;-83
2021/07/06 02:07:36;;;;;;;1.30;1.20;;;;;;;19.40;71.63;95222.31;4943835;29;20225;-84
2021/07/06 02:10:03;;;;;;;1.50;1.40;;;;;;;19.36;71.85;95223.03;4944479;29;20249;-83
2021/07/06 02:12:30;;;;;;;2.10;1.48;;;;;;;19.29;72.11;95217.97;4943590;29;20243;-86
2021/07/06 02:14:59;;;;;;;1.50;1.40;;;;;;;19.26;71.99;95208.00;4944730;29;20204;-83
2021/07/06 02:17:25;;;;;;;1.65;1.42;;;;;;;19.23;72.54;95205.91;4944250;29;20212;-84
2021/07/06 02:19:52;;;;;;;1.70;1.60;;;;;;;19.23;72.49;95218.94;4944665;29;20225;-83
2021/07/06 02:22:18;;;;;;;2.25;1.40;;;;;;;19.21;72.39;95203.53;4943805;29;20221;-84
2021/07/06 02:24:45;;;;;;;1.70;1.30;;;;;;;19.25;72.52;95212.44;4944244;29;20225;-84
2021/07/06 02:27:12;;;;;;;1.42;1.33;;;;;;;19.24;72.32;95203.03;4944589;29;20685;-86
2021/07/06 02:29:38;;;;;;;1.50;1.20;;;;;;;19.18;72.58;95204.00;4944035;29;20221;-84
2021/07/06 02:32:07;;;;;;;1.75;1.40;;;;;;;19.16;72.90;95200.84;4943618;29;20201;-86
2021/07/06 02:34:33;;;;;;;1.10;1.10;;;;;;;19.15;73.11;95206.28;4943295;29;20202;-84
2021/07/06 02:37:00;;;;;;;1.42;1.33;;;;;;;19.10;73.06;95209.59;4943385;29;20681;-86
2021/07/06 02:39:26;;;;;;;1.77;1.20;;;;;;;19.07;73.56;95210.09;4943414;29;20233;-85
2021/07/06 02:41:52;;;;;;;2.08;1.42;;;;;;;19.07;73.42;95215.31;4942886;29;20201;-83
2021/07/06 02:44:19;;;;;;;2.17;1.23;;;;;;;19.05;73.62;95214.75;4944061;29;20226;-84
2021/07/06 02:46:45;;;;;;;1.60;1.40;;;;;;;18.96;74.15;95209.16;4943350;29;20722;-86
2021/07/06 02:49:13;;;;;;;2.60;1.48;;;;;;;18.89;74.65;95202.50;4943701;29;20727;-84
2021/07/06 02:51:40;;;;;;;1.50;1.40;;;;;;;18.90;74.26;95198.88;4943487;29;20240;-85
2021/07/06 02:54:06;;;;;;;2.17;1.48;;;;;;;18.84;74.59;95198.00;4943147;29;20220;-84
2021/07/06 02:56:33;;;;;;;1.67;1.35;;;;;;;18.78;74.18;95192.94;4942929;28;20225;-86
2021/07/06 02:58:59;;;;;;;1.45;1.30;;;;;;;18.78;74.54;95195.56;4941438;29;20225;-83
2021/07/06 03:01:26;;;;;;;1.48;1.38;;;;;;;18.77;74.53;95199.19;4942332;29;20197;-84
2021/07/06 03:03:52;;;;;;;1.40;1.30;;;;;;;18.78;74.49;95193.75;4940534;29;20221;-85
2021/07/06 03:06:20;;;;;;;2.63;1.40;;;;;;;18.80;74.43;95199.50;4941379;29;20269;-84
2021/07/06 03:08:48;;;;;;;4.47;3.97;;;;;;;18.82;74.24;95188.84;4943045;29;20233;-85
2021/07/06 03:11:15;;;;;;;1.60;1.50;;;;;;;18.73;74.81;95192.84;4942443;29;20244;-84
2021/07/06 03:13:41;;;;;;;1.38;1.20;;;;;;;18.71;74.80;95189.69;4942138;29;20232;-85
2021/07/06 03:16:08;;;;;;;1.52;1.42;;;;;;;18.58;75.63;95186.34;4942483;29;20197;-84
2021/07/06 03:18:34;;;;;;;1.40;1.30;;;;;;;18.52;76.23;95184.66;4941195;29;20229;-84
2021/07/06 03:21:01;;;;;;;1.50;1.40;;;;;;;18.55;75.79;95188.63;4942200;29;20213;-84
2021/07/06 03:23:29;;;;;;;2.80;1.50;;;;;;;18.50;76.49;95188.53;4941917;29;20205;-85
2021/07/06 03:25:55;;;;;;;2.22;1.45;;;;;;;18.39;77.23;95174.53;4941926;29;20206;-85
2021/07/06 03:28:22;;;;;;;1.67;1.55;;;;;;;18.35;77.09;95177.84;4940135;29;20622;-83
2021/07/06 03:30:48;;;;;;;1.73;1.60;;;;;;;18.27;77.82;95176.44;4941467;29;20205;-84
2021/07/06 03:33:15;;;;;;;1.63;1.42;;;;;;;18.19;78.18;95174.19;4940693;29;20205;-83
2021/07/06 03:35:41;;;;;;;2.03;1.50;;;;;;;18.20;78.11;95170.56;4938737;29;20600;-84
2021/07/06 03:38:08;;;;;;;3.40;1.35;;;;;;;18.23;77.49;95186.53;4941493;29;20197;-83
2021/07/06 03:40:36;;;;;;;2.60;1.40;;;;;;;18.25;77.72;95175.88;4939978;29;20205;-83
2021/07/06 03:43:04;;;;;;;2.17;1.40;;;;;;;18.29;77.43;95179.56;4941197;29;20205;-85
2021/07/06 03:45:30;;;;;;;1.63;1.42;;;;;;;18.35;76.97;95177.84;4941145;29;20245;-83
2021/07/06 03:47:58;;;;;;;1.88;1.60;;;;;;;18.29;77.56;95175.16;4941444;29;20202;-83
2021/07/06 03:50:26;;;;;;;2.17;1.50;;;;;;;18.34;77.04;95176.28;4941075;29;20232;-85
2021/07/06 03:52:55;;;;;;;1.75;1.38;;;;;;;18.34;77.26;95173.66;4940619;29;20236;-83
2021/07/06 03:55:22;;;;;;;2.67;1.50;;;;;;;18.42;76.99;95174.09;4940756;29;20695;-84
2021/07/06 03:57:50;;;;;;;1.55;1.40;;;;;;;18.49;76.88;95163.47;4940418;28;20229;-83
2021/07/06 04:00:20;;;;;;;2.35;1.55;;;;;;;18.59;76.24;95166.31;4941030;29;20233;-83
2021/07/06 04:02:46;;;;;;;2.40;1.55;;;;;;;18.70;75.47;95169.84;4940794;29;20204;-84
2021/07/06 04:05:15;;;;;;;1.60;1.50;;;;;;;18.72;76.14;95162.59;4941569;29;20232;-85
2021/07/06 04:07:42;;;;;;;1.50;1.40;;;;;;;18.79;75.33;95166.63;4941137;29;20208;-86
2021/07/06 04:10:10;;;;;;;2.17;1.52;;;;;;;18.90;74.73;95162.34;4939965;29;20320;-86
2021/07/06 04:12:38;;;;;;;2.75;1.67;;;;;;;18.96;73.98;95164.78;4940588;29;20216;-84
2021/07/06 04:15:10;;;;;;;2.67;1.30;;;;;;;18.96;74.21;95159.56;4940312;29;20206;-84
2021/07/06 04:17:37;;;;;;;1.40;1.30;;;;;;;19.01;73.73;95161.47;4941218;29;20205;-83
2021/07/06 04:20:07;;;;;;;2.70;1.65;;;;;;;19.04;73.28;95163.63;4940722;29;20233;-82
2021/07/06 04:22:34;;;;;;;1.90;1.50;;;;;;;19.01;73.12;95158.88;4939826;29;20205;-85
2021/07/06 04:25:02;;;;;;;1.40;1.27;;;;;;;19.04;73.29;95161.00;4940414;29;20313;-83
2021/07/06 04:27:28;;;;;;;1.73;1.63;;;;;;;18.95;73.58;95163.22;4940384;29;20205;-84
2021/07/06 04:29:54;;;;;;;1.77;1.63;;;;;;;18.99;73.61;95173.97;4940481;29;20225;-84
2021/07/06 04:32:23;;;;;;;1.60;1.40;;;;;;;18.97;73.76;95168.19;4940476;29;20205;-83
2021/07/06 04:34:50;;;;;;;1.90;1.58;;;;;;;18.94;73.82;95160.84;4940067;29;20213;-84
2021/07/06 04:37:17;;;;;;;2.20;1.60;;;;;;;19.00;73.68;95166.94;4940043;29;20708;-85
2021/07/06 04:39:44;;;;;;;2.20;1.50;;;;;;;19.07;73.25;95173.53;4940595;29;20228;-85
2021/07/06 04:42:12;;;;;;;5.10;1.55;;;;;;;19.13;73.29;95177.03;4938193;29;20208;-83
2021/07/06 04:44:39;;;;;;;1.70;1.60;;;;;;;19.12;73.11;95178.06;4937872;29;20221;-85
2021/07/06 04:47:05;;;;;;;3.08;1.50;;;;;;;19.13;73.03;95166.59;4937382;29;20208;-83
2021/07/06 04:49:33;;;;;;;3.22;1.38;;;;;;;19.18;72.92;95171.88;4938135;29;20225;-84
2021/07/06 04:52:00;;;;;;;1.90;1.50;;;;;;;19.25;72.66;95172.50;4937804;29;20225;-82
2021/07/06 04:54:26;;;;;;;2.65;1.50;;;;;;;19.37;72.13;95165.38;4937866;29;20201;-84
2021/07/06 04:56:53;;;;;;;1.67;1.30;;;;;;;19.38;72.11;95166.16;4937424;28;20233;-84
2021/07/06 04:59:20;;;;;;;1.80;1.70;;;;;;;19.40;72.56;95164.09;4937949;29;20232;-84
2021/07/06 05:01:47;;;;;;;2.58;1.45;;;;;;;19.53;72.56;95161.16;4938001;29;20204;-84
2021/07/06 05:04:14;;;;;;;1.63;1.52;;;;;;;19.61;72.54;95161.53;4938873;29;20845;-84
2021/07/06 05:06:42;;;;;;;1.75;1.52;;;;;;;19.63;71.33;95161.25;4939320;29;20557;-84
2021/07/06 05:09:09;;;;;;;3.90;1.63;;;;;;;19.83;70.90;95161.50;4939421;29;20228;-84
2021/07/06 05:11:36;;;;;;;2.22;1.92;;;;;;;19.97;69.90;95167.94;4938466;29;20210;-85
2021/07/06 05:14:02;;;;;;;5.63;1.30;;;;;;;20.13;69.94;95161.06;4937152;29;20206;-84
2021/07/06 05:16:30;;;;;;;2.53;1.60;;;;;;;20.29;69.13;95162.78;4936383;29;20212;-83
2021/07/06 05:18:57;;;;;;;1.52;1.38;;;;;;;20.20;68.25;95164.28;4938093;29;20280;-84
2021/07/06 05:21:23;;;;;;;2.85;1.35;;;;;;;20.28;68.38;95155.19;4938356;29;20216;-84
2021/07/06 05:23:52;;;;;;;3.05;1.30;;;;;;;20.26;68.70;95147.56;4939624;29;20297;-83
2021/07/06 05:26:18;;;;;;;1.60;1.50;;;;;;;20.24;67.99;95154.09;4938522;29;20209;-82
2021/07/06 05:28:44;;;;;;;1.60;1.50;;;;;;;20.31;67.55;95163.31;4938521;29;20222;-83
2021/07/06 05:31:11;;;;;;;2.30;1.55;;;;;;;20.35;67.34;95155.78;4938201;29;20221;-83
2021/07/06 05:33:38;;;;;;;2.13;1.83;;;;;;;20.44;67.63;95164.75;4936751;29;20205;-83
2021/07/06 05:36:05;;;;;;;5.50;1.60;;;;;;;20.56;67.33;95162.00;4937113;29;20205;-83
2021/07/06 05:38:31;;;;;;;2.38;1.50;;;;;;;20.57;66.97;95156.53;4938861;29;20578;-84
2021/07/06 05:40:59;;;;;;;3.05;1.33;;;;;;;20.63;66.21;95154.72;4937710;29;20304;-84
2021/07/06 05:43:27;;;;;;;1.70;1.60;;;;;;;20.62;66.11;95151.31;4938382;29;20213;-85
2021/07/06 05:45:54;;;;;;;1.20;1.20;;;;;;;20.72;66.51;95155.06;4934695;29;20232;-85
2021/07/06 05:48:21;;;;;;;2.65;1.48;;;;;;;20.83;66.03;95149.66;4933765;29;20201;-85
2021/07/06 05:50:48;;;;;;;2.70;1.27;;;;;;;20.89;66.57;95148.66;4933704;29;20572;-84
2021/07/06 05:53:15;;;;;;;1.67;1.38;;;;;;;21.00;65.93;95146.88;4937562;29;20777;-83
2021/07/06 05:55:43;;;;;;;4.18;1.58;;;;;;;21.02;65.71;95142.97;4936214;28;20201;-84
2021/07/06 05:58:11;;;;;;;2.08;1.50;;;;;;;21.11;65.43;95143.31;4938723;29;20273;-85
2021/07/06 06:00:38;;;;;;;1.52;1.40;;;;;;;21.13;64.23;95140.44;4937995;29;20290;-83
2021/07/06 06:03:08;;;;;;;2.67;1.35;;;;;;;21.18;64.40;95132.59;4938742;29;20201;-83
2021/07/06 06:05:34;;;;;;;1.52;1.15;;;;;;;21.23;64.64;95127.41;4939360;29;20228;-84
2021/07/06 06:08:01;;;;;;;4.00;1.65;;;;;;;21.29;64.49;95124.56;4938178;29;20202;-86
2021/07/06 06:10:27;;;;;;;3.10;1.30;;;;;;;21.38;64.84;95127.47;4937069;29;20257;-83
2021/07/06 06:12:54;;;;;;;2.78;1.40;;;;;;;21.42;64.27;95125.94;4937821;29;20763;-84
2021/07/06 06:15:21;;;;;;;1.70;1.45;;;;;;;21.50;64.48;95120.22;4936648;29;20236;-86
2021/07/06 06:17:48;;;;;;;2.15;1.40;;;;;;;21.64;64.35;95115.28;4938012;29;20214;-84
2021/07/06 06:20:17;;;;;;;1.30;1.20;;;;;;;21.77;65.52;95120.03;4936282;29;20771;-84
2021/07/06 06:22:46;;;;;;;4.18;1.75;;;;;;;21.78;63.84;95126.84;4937193;29;20205;-84
2021/07/06 06:25:13;;;;;;;2.00;1.20;;;;;;;21.88;63.54;95121.66;4938393;29;20236;-84
2021/07/06 06:27:40;;;;;;;1.80;1.50;;;;;;;21.91;62.98;95110.66;4937747;29;20205;-84
2021/07/06 06:30:10;;;;;;;1.52;1.15;;;;;;;21.95;62.76;95110.91;4937563;29;20228;-84
2021/07/06 06:32:38;;;;;;;2.15;1.10;;;;;;;21.86;62.11;95107.22;4932703;29;20581;-84
2021/07/06 06:35:05;;;;;;;3.25;1.40;;;;;;;21.97;62.57;95112.22;4936240;29;20607;-83
2021/07/06 06:37:32;;;;;;;1.50;1.40;;;;;;;22.04;60.73;95109.41;4935118;29;20249;-85
2021/07/06 06:39:59;;;;;;;1.48;1.23;;;;;;;22.10;61.61;95105.75;4936620;29;20226;-83
2021/07/06 06:42:31;;;;;;;4.68;1.60;;;;;;;22.17;61.63;95103.63;4939127;29;20206;-85
2021/07/06 06:44:58;;;;;;;2.10;1.45;;;;;;;22.30;62.03;95100.53;4941349;29;20351;-84
2021/07/06 06:47:24;;;;;;;2.80;1.40;;;;;;;22.40;61.68;95097.88;4941786;29;20209;-83
2021/07/06 06:49:52;;;;;;;2.58;1.10;;;;;;;22.46;61.12;95101.31;4942671;29;20233;-85
2021/07/06 06:52:18;;;;;;;3.08;1.20;;;;;;;22.59;61.29;95100.00;4941728;29;20217;-84
2021/07/06 06:54:45;;;;;;;1.55;1.27;;;;;;;22.69;60.87;95092.91;4941503;29;20427;-85
2021/07/06 06:57:11;;;;;;;2.55;1.30;;;;;;;22.73;60.89;95087.88;4941388;28;20242;-83
2021/07/06 06:59:38;;;;;;;3.00;1.20;;;;;;;22.71;59.32;95084.75;4942013;29;20229;-84
2021/07/06 07:02:20;;;;;;;2.25;1.40;;;;;;;22.72;58.76;95076.59;4942153;29;20209;-85
2021/07/06 07:04:48;;;;;;;2.15;1.27;;;;;;;22.82;59.18;95067.19;4942815;29;20225;-83
2021/07/06 07:07:16;;;;;;;2.05;1.27;;;;;;;22.93;59.14;95082.66;4942174;29;20201;-84
2021/07/06 07:09:43;;;;;;;1.30;1.20;;;;;;;22.99;58.52;95072.91;4942546;29;20228;-85
2021/07/06 07:12:10;;;;;;;2.65;1.40;;;;;;;23.03;58.57;95072.13;4943235;29;20869;-84
2021/07/06 07:14:38;;;;;;;1.60;1.30;;;;;;;23.20;59.38;95071.81;4943269;29;20205;-83
2021/07/06 07:17:05;;;;;;;2.60;1.25;;;;;;;23.26;58.17;95070.75;4940160;29;20304;-84
2021/07/06 07:19:32;;;;;;;3.10;1.30;;;;;;;23.33;57.84;95071.22;4940679;29;20222;-85
2021/07/06 07:21:59;;;;;;;2.10;1.33;;;;;;;23.29;58.37;95064.94;4940022;29;20205;-83
2021/07/06 07:24:27;;;;;;;1.42;1.30;;;;;;;23.31;58.45;95060.19;4941206;29;20209;-85
2021/07/06 07:26:53;;;;;;;2.70;1.33;;;;;;;23.47;58.26;95073.31;4942340;29;20605;-85
2021/07/06 07:29:20;;;;;;;2.47;1.35;;;;;;;23.53;56.62;95067.75;4941795;29;20225;-84
2021/07/06 07:31:46;;;;;;;2.78;1.50;;;;;;;23.54;55.91;95073.81;4941518;29;20209;-85
2021/07/06 07:34:13;;;;;;;1.60;1.40;;;;;;;23.60;56.56;95070.09;4941573;29;20229;-82
2021/07/06 07:36:41;;;;;;;1.67;1.33;;;;;;;23.66;57.25;95067.19;4942019;29;20622;-84
2021/07/06 07:39:08;;;;;;;1.15;1.15;;;;;;;23.80;57.23;95063.97;4940514;29;20831;-84
2021/07/06 07:41:44;;;;;;;2.67;1.50;;;;;;;23.89;56.06;95064.94;4933673;29;20257;-84
2021/07/06 07:44:10;;;;;;;1.30;1.20;;;;;;;24.04;56.63;95057.75;4938545;29;20256;-85
2021/07/06 07:46:37;;;;;;;6.78;1.60;;;;;;;24.14;55.31;95064.00;4941784;29;20727;-83
2021/07/06 07:49:06;;;;;;;2.90;1.27;;;;;;;24.18;53.25;95073.69;4940953;29;20221;-83
2021/07/06 07:51:33;;;;;;;1.35;1.20;;;;;;;24.29;54.40;95069.94;4941666;29;20570;-83
2021/07/06 07:53:59;;;;;;;1.92;1.40;;;;;;;24.43;54.32;95076.19;4941411;29;20209;-82
2021/07/06 07:56:26;;;;;;;3.33;1.30;;;;;;;24.45;53.38;95060.09;4939541;28;20244;-85
2021/07/06 07:58:54;;;;;;;1.30;1.10;;;;;;;24.53;53.13;95059.50;4940702;29;20232;-84
2021/07/06 08:01:21;;;;;;;3.95;1.20;;;;;;;24.59;53.60;95047.88;4940526;29;20197;-85
2021/07/06 08:03:48;;;;;;;2.08;1.10;;;;;;;24.54;51.33;95053.19;4940629;29;20207;-82
2021/07/06 08:06:17;;;;;;;1.52;1.05;;;;;;;24.67;52.44;95044.63;4941272;29;20240;-84
2021/07/06 08:08:44;;;;;;;1.17;1.10;;;;;;;24.84;53.28;95046.03;4939430;29;20233;-83
2021/07/06 08:11:11;;;;;;;2.10;1.20;;;;;;;24.97;52.20;95054.09;4941084;29;20205;-84
2021/07/06 08:13:37;;;;;;;1.20;1.10;;;;;;;25.01;51.16;95049.88;4941773;29;20205;-82
2021/07/06 08:16:06;;;;;;;3.05;2.75;;;;;;;25.12;50.98;95040.75;4942055;29;20205;-84
2021/07/06 08:18:32;;;;;;;1.33;1.30;;;;;;;25.25;52.08;95039.28;4938847;29;20229;-84
2021/07/06 08:20:59;;;;;;;4.13;1.33;;;;;;;25.33;52.00;95036.03;4939423;29;20213;-84
2021/07/06 08:23:26;;;;;;;1.33;1.23;;;;;;;25.43;51.56;95045.66;4941265;29;20218;-85
2021/07/06 08:25:52;;;;;;;2.58;1.20;;;;;;;25.44;50.05;95034.06;4941618;29;20230;-83
2021/07/06 08:28:21;;;;;;;4.15;1.20;;;;;;;25.54;50.18;95036.56;4941973;29;20209;-84
2021/07/06 08:30:48;;;;;;;3.53;1.30;;;;;;;25.66;50.39;95036.19;4942696;29;20244;-82
2021/07/06 08:33:16;;;;;;;1.30;1.10;;;;;;;25.73;49.49;95034.75;4942108;29;20265;-84
2021/07/06 08:35:42;;;;;;;1.40;1.30;;;;;;;25.85;49.90;95033.53;4941345;29;20202;-84
2021/07/06 08:38:13;;;;;;;2.00;1.30;;;;;;;25.94;49.69;95029.97;4939809;29;20194;-84
2021/07/06 08:40:45;;;;;;;1.98;1.20;;;;;;;26.01;49.31;95034.88;4940265;29;20292;-84
2021/07/06 08:43:14;;;;;;;1.30;1.20;;;;;;;26.07;49.50;95034.53;4941626;29;20269;-83
2021/07/06 08:45:41;;;;;;;1.23;1.00;;;;;;;26.15;49.29;95027.81;4941700;28;20252;-84
2021/07/06 08:48:09;;;;;;;1.70;1.10;;;;;;;26.25;48.41;95037.41;4935976;29;20209;-84
2021/07/06 08:50:37;;;;;;;1.35;1.25;;;;;;;26.32;49.62;95035.22;4940505;29;20229;-85
2021/07/06 08:53:04;;;;;;;1.65;1.10;;;;;;;26.30;46.52;95037.38;4940611;29;20209;-82
2021/07/06 08:55:31;;;;;;;2.28;1.20;;;;;;;26.34;46.63;95036.53;4941077;28;20317;-82
2021/07/06 08:57:58;;;;;;;1.10;1.10;;;;;;;26.33;46.71;95023.59;4940334;29;20213;-84
2021/07/06 09:00:29;;;;;;;2.75;1.95;;;;;;;26.40;46.96;95027.41;4938712;29;20277;-83
2021/07/06 09:03:01;;;;;;;2.00;1.90;;;;;;;26.43;46.94;95015.50;4939730;29;20213;-84
2021/07/06 09:05:29;;;;;;;1.40;1.20;;;;;;;26.57;47.53;95016.31;4940740;29;20232;-86
2021/07/06 09:07:57;;;;;;;3.78;1.25;;;;;;;26.69;47.41;95023.78;4940579;29;20209;-83
2021/07/06 09:10:25;;;;;;;1.30;1.20;;;;;;;26.91;47.07;95025.75;4941026;29;20232;-84
2021/07/06 09:12:51;;;;;;;1.45;1.33;;;;;;;27.02;46.70;95017.38;4939596;29;20201;-84
2021/07/06 09:15:29;;;;;;;1.55;1.30;;;;;;;27.21;47.46;95016.47;4934148;29;20580;-83
2021/07/06 09:18:10;;;;;;;1.33;1.23;;;;;;;27.44;46.96;95024.19;4932888;29;20206;-84
2021/07/06 09:20:39;;;;;;;2.85;1.20;;;;;;;27.53;45.14;95016.34;4933015;29;20209;-84
2021/07/06 09:23:21;;;;;;;1.58;1.13;;;;;;;27.60;43.93;95014.09;4939015;29;20211;-85
2021/07/06 09:25:48;;;;;;;1.38;1.08;;;;;;;27.77;43.84;95019.53;4941021;29;20228;-84
2021/07/06 09:28:22;;;;;;;2.30;1.33;;;;;;;27.80;44.36;95012.88;4939412;29;20213;-84
2021/07/06 09:30:49;;;;;;;3.53;1.27;;;;;;;27.93;43.92;95017.34;4940036;29;20215;-84
2021/07/06 09:33:27;;;;;;;1.00;1.00;;;;;;;27.99;43.05;95021.44;4938180;29;20202;-83
2021/07/06 09:35:53;;;;;;;1.27;0.95;;;;;;;28.01;43.21;95015.84;4939042;29;20621;-83
2021/07/06 09:38:22;;;;;;;1.20;1.10;;;;;;;28.11;43.32;95012.94;4940204;29;20236;-84
2021/07/06 09:40:50;;;;;;;1.25;1.00;;;;;;;28.25;42.34;95015.59;4939983;29;20206;-84
2021/07/06 09:43:19;;;;;;;1.20;1.20;;;;;;;28.32;43.00;95010.63;4939769;29;20209;-85
2021/07/06 09:45:51;;;;;;;1.42;1.20;;;;;;;28.43;42.56;95002.16;4938793;29;20229;-84
2021/07/06 09:48:18;;;;;;;1.00;1.00;;;;;;;28.51;42.43;95006.69;4939067;29;20438;-82
2021/07/06 09:50:44;;;;;;;1.33;1.23;;;;;;;28.57;43.52;95011.88;4938724;29;20212;-84
2021/07/06 09:53:30;;;;;;;1.30;1.15;;;;;;;28.63;41.89;95005.34;4939059;29;20321;-85
2021/07/06 09:55:59;;;;;;;1.23;0.93;;;;;;;28.76;42.83;94993.88;4936257;28;20397;-84
2021/07/06 09:58:25;;;;;;;2.92;1.23;;;;;;;28.94;42.68;95000.06;4932081;29;20236;-84
2021/07/06 10:00:53;;;;;;;1.90;1.00;;;;;;;28.92;42.41;94992.41;4936100;29;20202;-83
2021/07/06 10:03:20;;;;;;;1.20;1.10;;;;;;;28.99;42.28;94998.06;4937721;29;20206;-84
2021/07/06 10:05:50;;;;;;;3.92;1.30;;;;;;;29.10;42.66;94990.59;4938020;29;20316;-84
2021/07/06 10:08:17;;;;;;;2.63;1.40;;;;;;;29.02;42.32;94997.44;4937138;29;20217;-83
2021/07/06 10:10:45;;;;;;;1.40;1.30;;;;;;;28.91;42.04;94993.50;4936329;29;20265;-84
2021/07/06 10:13:12;;;;;;;2.55;1.10;;;;;;;28.97;43.54;94992.28;4937337;29;20206;-84
2021/07/06 10:15:39;;;;;;;2.00;1.30;;;;;;;29.17;43.03;94989.06;4940089;29;20292;-83
2021/07/06 10:18:06;;;;;;;2.10;1.20;;;;;;;29.34;43.85;94977.69;4940979;29;20210;-85
2021/07/06 10:20:35;;;;;;;1.58;1.30;;;;;;;29.44;41.24;94974.78;4940302;29;20252;-84
2021/07/06 10:23:03;;;;;;;2.33;1.90;;;;;;;29.50;41.79;94981.50;4938142;29;20205;-84
2021/07/06 10:25:32;;;;;;;2.28;1.30;;;;;;;29.66;41.43;94973.84;4938880;29;20303;-82
2021/07/06 10:28:02;;;;;;;2.60;1.48;;;;;;;29.82;41.71;94971.53;4935014;29;20238;-84
2021/07/06 10:30:33;;;;;;;1.63;1.20;;;;;;;29.86;40.41;94962.63;4937973;29;20217;-84
2021/07/06 10:33:01;;;;;;;1.95;1.30;;;;;;;29.99;40.02;94970.78;4937581;29;20469;-84
2021/07/06 10:35:46;;;;;;;1.17;1.10;;;;;;;29.98;38.84;94963.91;4937206;29;20201;-84
2021/07/06 10:38:41;;;;;;;1.40;1.30;;;;;;;30.04;40.18;94970.59;4937709;29;20216;-84
2021/07/06 10:41:12;;;;;;;1.80;1.10;;;;;;;30.02;40.50;94959.53;4935333;29;20210;-85
2021/07/06 10:43:54;;;;;;;2.38;1.10;;;;;;;30.05;39.04;94954.34;4932334;29;20213;-84
2021/07/06 10:46:32;;;;;;;1.45;1.30;;;;;;;30.12;38.75;94946.69;4933948;29;20649;-86
2021/07/06 10:49:02;;;;;;;2.85;1.30;;;;;;;30.25;39.76;94944.94;4924836;29;20693;-84
2021/07/06 10:51:59;;;;;;;1.60;1.30;;;;;;;30.31;38.17;94942.91;4934463;29;20201;-84
2021/07/06 10:54:29;;;;;;;1.20;1.00;;;;;;;30.23;38.17;94942.59;4914116;29;20638;-84
2021/07/06 10:56:57;;;;;;;1.25;1.15;;;;;;;30.32;38.67;94947.13;4933419;28;20225;-83
2021/07/06 10:59:26;;;;;;;1.30;1.20;;;;;;;30.42;37.52;94942.22;4936910;29;20234;-84
2021/07/06 11:02:03;;;;;;;3.92;1.00;;;;;;;30.58;37.83;94941.75;4939321;29;20292;-85
2021/07/06 11:05:04;;;;;;;2.25;1.38;;;;;;;30.71;37.46;94941.53;4938098;29;20205;-84
2021/07/06 11:08:05;;;;;;;1.02;1.02;;;;;;;30.75;37.00;94941.69;4939076;29;20217;-85
2021/07/06 11:10:40;;;;;;;1.08;0.95;;;;;;;30.79;35.33;94937.28;4939344;29;20635;-84
2021/07/06 11:13:33;;;;;;;1.75;1.13;;;;;;;30.80;35.62;94936.94;4938790;29;20224;-85
2021/07/06 11:16:04;;;;;;;1.40;1.00;;;;;;;30.90;36.78;94944.56;4938144;28;20209;-84
2021/07/06 11:18:51;;;;;;;1.02;1.00;;;;;;;30.91;37.39;94945.34;4935284;29;20742;-84
2021/07/06 11:21:37;;;;;;;0.93;0.93;;;;;;;30.92;36.29;94944.25;4936567;29;20208;-84
2021/07/06 11:24:15;;;;;;;0.90;0.90;;;;;;;30.99;37.84;94946.38;4918903;29;20679;-84
2021/07/06 11:26:44;;;;;;;1.10;1.00;;;;;;;31.14;37.90;94951.97;4916014;29;20221;-84
2021/07/06 11:29:14;;;;;;;1.90;1.13;;;;;;;31.09;35.16;94946.81;4917243;29;20296;-84
2021/07/06 11:31:42;;;;;;;1.92;1.00;;;;;;;31.07;35.21;94941.03;4919068;29;20202;-83
2021/07/06 11:34:21;;;;;;;1.88;1.05;;;;;;;31.10;35.32;94937.75;4930609;29;20202;-84
2021/07/06 11:36:48;;;;;;;3.40;1.30;;;;;;;31.31;35.86;94937.78;4934227;29;20209;-84
2021/07/06 11:39:15;;;;;;;1.00;1.00;;;;;;;31.48;37.02;94943.00;4936013;29;20222;-84
2021/07/06 11:41:42;;;;;;;2.33;1.00;;;;;;;31.41;34.74;94947.25;4938618;29;20215;-84